Time;durP1;ratioP1;P1;durP2;ratioP2;P2;SDS_P1;SDS_P2;PMS_P1;PMS_P2;Temp;Humidity;BMP_temperature;BMP_pressure;BME280_temperature;BME280_humidity;BME280_pressure;Samples;Min_cycle;Max_cycle;Signal;HPM_P1;HPM_P2
2021/01/11 00:02:21;;;;;;;3.60;2.83;;;4.30;99.90;;;;;;5057292;28;20175;-83
2021/01/11 00:04:46;;;;;;;4.07;3.03;;;4.30;99.90;;;;;;5056522;28;20281;-82
2021/01/11 00:07:12;;;;;;;3.50;2.00;;;4.30;99.90;;;;;;5055920;28;20681;-83
2021/01/11 00:09:38;;;;;;;1.60;1.50;;;4.10;99.90;;;;;;5055312;28;20170;-83
2021/01/11 00:12:05;;;;;;;3.00;1.63;;;4.00;99.90;;;;;;5054788;28;20178;-85
2021/01/11 00:14:31;;;;;;;5.40;3.53;;;4.10;99.90;;;;;;5054682;28;20187;-84
2021/01/11 00:16:56;;;;;;;2.47;2.20;;;4.20;99.90;;;;;;5054902;28;20177;-85
2021/01/11 00:19:22;;;;;;;2.20;2.10;;;4.20;99.90;;;;;;5056317;28;20179;-84
2021/01/11 00:21:50;;;;;;;1.83;1.73;;;4.20;99.90;;;;;;5055562;28;20670;-84
2021/01/11 00:24:16;;;;;;;1.93;1.83;;;4.10;99.90;;;;;;5055997;28;20558;-85
2021/01/11 00:26:51;;;;;;;1.90;1.80;;;4.20;99.90;;;;;;5056357;28;20257;-84
2021/01/11 00:29:18;;;;;;;2.10;2.00;;;4.30;99.90;;;;;;5055147;28;20171;-85
2021/01/11 00:31:43;;;;;;;1.30;1.23;;;4.30;99.90;;;;;;5055193;28;20187;-84
2021/01/11 00:34:09;;;;;;;0.63;0.63;;;4.30;99.90;;;;;;5055981;28;20233;-85
2021/01/11 00:36:34;;;;;;;1.60;1.27;;;4.20;99.90;;;;;;5055005;28;20507;-85
2021/01/11 00:39:00;;;;;;;2.43;2.23;;;4.30;99.90;;;;;;5056193;28;20169;-85
2021/01/11 00:41:25;;;;;;;1.67;1.50;;;4.20;99.90;;;;;;5054445;28;20235;-84
2021/01/11 00:43:51;;;;;;;17.60;2.27;;;4.20;99.90;;;;;;5055849;28;20237;-84
2021/01/11 00:46:21;;;;;;;3.63;2.97;;;4.30;99.90;;;;;;5056175;28;20171;-85
2021/01/11 00:48:46;;;;;;;1.70;1.60;;;4.40;99.90;;;;;;5054767;28;20174;-85
2021/01/11 00:51:12;;;;;;;2.17;2.00;;;4.50;99.90;;;;;;5054994;28;20182;-84
2021/01/11 00:53:37;;;;;;;2.20;2.03;;;4.30;99.90;;;;;;5054780;28;20532;-85
2021/01/11 00:56:03;;;;;;;5.60;2.20;;;4.20;99.90;;;;;;5054588;28;20187;-85
2021/01/11 00:58:29;;;;;;;1.40;1.30;;;4.30;99.90;;;;;;5054733;28;20258;-85
2021/01/11 01:00:54;;;;;;;7.00;2.23;;;4.40;99.90;;;;;;5054748;28;20688;-85
2021/01/11 01:03:20;;;;;;;2.03;1.93;;;4.50;99.90;;;;;;5054956;28;20595;-84
2021/01/11 01:05:45;;;;;;;0.57;0.57;;;4.50;99.90;;;;;;5054852;28;20627;-84
2021/01/11 01:08:11;;;;;;;1.73;1.63;;;4.30;99.90;;;;;;5054328;28;20168;-85
2021/01/11 01:10:36;;;;;;;1.37;1.37;;;4.30;99.90;;;;;;5053955;28;20171;-86
2021/01/11 01:13:02;;;;;;;4.30;2.37;;;4.30;99.90;;;;;;5053979;28;20214;-84
2021/01/11 01:15:27;;;;;;;3.07;1.53;;;4.30;99.90;;;;;;5053738;28;20198;-85
2021/01/11 01:17:53;;;;;;;2.07;1.97;;;4.40;99.90;;;;;;5053481;28;20178;-84
2021/01/11 01:20:18;;;;;;;2.63;2.37;;;4.50;99.90;;;;;;5053865;28;20195;-84
2021/01/11 01:22:45;;;;;;;2.77;2.53;;;4.30;99.90;;;;;;5054098;28;20630;-84
2021/01/11 01:25:12;;;;;;;0.80;0.80;;;4.40;99.90;;;;;;5053669;28;20193;-84
2021/01/11 01:27:38;;;;;;;1.13;1.13;;;4.40;99.90;;;;;;5053704;28;20669;-84
2021/01/11 01:30:04;;;;;;;2.20;2.07;;;4.40;99.90;;;;;;5053678;28;20167;-84
2021/01/11 01:32:30;;;;;;;1.13;1.13;;;4.40;99.90;;;;;;5054001;28;20183;-84
2021/01/11 01:34:55;;;;;;;1.83;1.47;;;4.40;99.90;;;;;;5053764;28;20222;-84
2021/01/11 01:37:21;;;;;;;1.50;1.40;;;4.30;99.90;;;;;;5055157;28;20175;-84
2021/01/11 01:39:46;;;;;;;1.27;1.27;;;4.40;99.90;;;;;;5053886;28;20178;-84
2021/01/11 01:42:12;;;;;;;1.20;1.13;;;4.40;99.90;;;;;;5055397;28;20660;-84
2021/01/11 01:44:37;;;;;;;2.80;2.60;;;4.40;99.90;;;;;;5053498;28;20187;-84
2021/01/11 01:47:03;;;;;;;2.00;1.90;;;4.10;99.90;;;;;;5053775;28;20166;-84
2021/01/11 01:49:28;;;;;;;2.13;1.77;;;4.20;99.90;;;;;;5055027;28;20178;-84
2021/01/11 01:51:54;;;;;;;1.87;1.77;;;4.20;99.90;;;;;;5054661;28;20695;-84
2021/01/11 01:54:19;;;;;;;3.40;1.47;;;4.20;99.90;;;;;;5055093;28;20539;-84
2021/01/11 01:56:46;;;;;;;1.37;0.97;;;4.20;99.90;;;;;;5053594;28;20171;-84
2021/01/11 01:59:14;;;;;;;2.47;2.37;;;4.20;99.90;;;;;;5055411;28;20256;-84
2021/01/11 02:01:40;;;;;;;1.60;1.50;;;4.20;99.90;;;;;;5053402;28;20229;-85
2021/01/11 02:04:05;;;;;;;1.83;1.77;;;4.10;99.90;;;;;;5054002;28;20692;-84
2021/01/11 02:06:35;;;;;;;3.43;3.13;;;4.20;99.90;;;;;;5055345;28;20168;-84
2021/01/11 02:09:18;;;;;;;4.17;2.27;;;4.20;99.90;;;;;;5054112;28;20654;-84
2021/01/11 02:11:56;;;;;;;2.87;2.77;;;4.20;99.90;;;;;;5057687;28;20623;-85
2021/01/11 02:15:03;;;;;;;1.87;1.77;;;4.20;99.90;;;;;;5059059;28;20195;-85
2021/01/11 02:17:40;;;;;;;2.03;1.90;;;4.20;99.90;;;;;;5018820;28;20274;-85
2021/01/11 02:20:39;;;;;;;1.50;1.40;;;4.20;99.90;;;;;;5057733;28;20206;-84
2021/01/11 02:23:48;;;;;;;1.53;1.17;;;4.10;99.90;;;;;;5059063;28;20647;-84
2021/01/11 02:26:19;;;;;;;1.63;1.53;;;4.10;99.90;;;;;;5057478;28;20636;-85
2021/01/11 02:29:01;;;;;;;1.40;1.30;;;4.10;99.90;;;;;;5057288;28;20254;-84
2021/01/11 02:31:28;;;;;;;1.90;1.57;;;4.00;99.90;;;;;;5058613;28;20184;-85
2021/01/11 02:33:56;;;;;;;2.63;2.30;;;4.10;99.90;;;;;;5057980;28;20544;-84
2021/01/11 02:36:22;;;;;;;1.30;1.13;;;4.10;99.90;;;;;;5057053;28;20232;-85
2021/01/11 02:38:49;;;;;;;1.87;1.47;;;4.00;99.90;;;;;;5056967;28;20171;-84
2021/01/11 02:41:15;;;;;;;1.23;1.23;;;4.10;99.90;;;;;;5057048;28;20204;-84
2021/01/11 02:43:41;;;;;;;3.17;2.93;;;4.10;99.90;;;;;;5057049;28;20190;-84
2021/01/11 02:46:07;;;;;;;2.37;2.17;;;4.10;99.90;;;;;;5058573;28;20190;-85
2021/01/11 02:48:42;;;;;;;3.33;3.13;;;4.10;99.90;;;;;;5057425;28;20626;-84
2021/01/11 02:51:27;;;;;;;1.13;1.10;;;4.10;99.90;;;;;;5056593;28;20177;-84
2021/01/11 02:54:25;;;;;;;1.90;1.80;;;4.10;99.90;;;;;;5058006;28;20300;-84
2021/01/11 02:56:58;;;;;;;2.30;2.20;;;4.00;99.90;;;;;;5056943;28;20185;-84
2021/01/11 02:59:29;;;;;;;1.37;1.27;;;4.00;99.90;;;;;;5058139;28;20560;-84
2021/01/11 03:02:08;;;;;;;1.47;1.37;;;4.00;99.90;;;;;;5055984;28;20201;-84
2021/01/11 03:04:34;;;;;;;2.90;2.10;;;3.80;99.90;;;;;;5056372;28;20199;-84
2021/01/11 03:07:02;;;;;;;2.33;2.20;;;3.80;99.90;;;;;;5056142;28;20168;-84
2021/01/11 03:09:29;;;;;;;1.70;1.60;;;3.90;99.90;;;;;;5057398;28;20198;-84
2021/01/11 03:11:55;;;;;;;4.23;3.97;;;3.80;99.90;;;;;;5057179;28;20638;-84
2021/01/11 03:14:21;;;;;;;2.10;2.00;;;3.80;99.90;;;;;;5055915;28;20328;-84
2021/01/11 03:16:47;;;;;;;1.63;1.07;;;3.60;99.90;;;;;;5055478;28;20218;-85
2021/01/11 03:19:12;;;;;;;1.57;1.47;;;3.70;99.90;;;;;;5055934;28;20178;-84
2021/01/11 03:21:39;;;;;;;1.73;1.63;;;3.80;99.90;;;;;;5055215;28;20206;-84
2021/01/11 03:24:05;;;;;;;2.57;2.03;;;3.70;99.90;;;;;;5056051;28;20275;-84
2021/01/11 03:26:31;;;;;;;1.67;1.47;;;3.80;99.90;;;;;;5057167;28;20162;-84
2021/01/11 03:28:56;;;;;;;3.20;2.97;;;3.80;99.90;;;;;;5055561;28;20171;-85
2021/01/11 03:31:22;;;;;;;1.83;1.33;;;3.60;99.90;;;;;;5055502;28;20175;-85
2021/01/11 03:33:49;;;;;;;3.30;1.60;;;3.70;99.90;;;;;;5056872;28;20200;-84
2021/01/11 03:36:15;;;;;;;1.13;1.03;;;3.60;99.90;;;;;;5057259;28;20253;-84
2021/01/11 03:38:41;;;;;;;1.50;1.40;;;3.70;99.90;;;;;;5055801;28;20585;-84
2021/01/11 03:41:09;;;;;;;2.10;2.00;;;3.70;99.90;;;;;;5055513;28;20205;-84
2021/01/11 03:43:40;;;;;;;3.33;2.87;;;3.60;99.90;;;;;;5056519;28;20190;-85
2021/01/11 03:46:08;;;;;;;3.77;3.57;;;3.50;99.90;;;;;;5056878;28;20169;-84
2021/01/11 03:48:33;;;;;;;3.10;2.77;;;3.60;99.90;;;;;;5055576;28;20168;-84
2021/01/11 03:51:00;;;;;;;3.07;2.80;;;3.50;99.90;;;;;;5055674;28;20178;-86
2021/01/11 03:53:26;;;;;;;3.03;2.40;;;3.60;99.90;;;;;;5055206;28;20265;-84
2021/01/11 03:55:52;;;;;;;1.60;1.57;;;3.70;99.90;;;;;;5055502;28;20199;-84
2021/01/11 03:58:18;;;;;;;2.83;2.63;;;3.70;99.90;;;;;;5056832;28;20180;-84
2021/01/11 04:00:43;;;;;;;2.23;1.93;;;3.70;99.90;;;;;;5055622;28;20295;-84
2021/01/11 04:03:09;;;;;;;3.07;2.83;;;3.60;99.90;;;;;;5055323;28;20205;-85
2021/01/11 04:05:35;;;;;;;1.40;1.13;;;3.60;99.90;;;;;;5056717;28;20214;-84
2021/01/11 04:08:01;;;;;;;4.57;2.13;;;3.50;99.90;;;;;;5056621;28;20165;-84
2021/01/11 04:10:27;;;;;;;2.00;1.90;;;3.40;99.90;;;;;;5055031;28;20211;-84
2021/01/11 04:12:53;;;;;;;2.57;2.37;;;3.40;99.90;;;;;;5056686;28;20172;-84
2021/01/11 04:15:19;;;;;;;2.60;2.13;;;3.30;99.90;;;;;;5055352;28;20198;-84
2021/01/11 04:17:44;;;;;;;5.50;3.50;;;3.40;99.90;;;;;;5055057;28;20515;-85
2021/01/11 04:20:10;;;;;;;2.43;2.30;;;3.30;99.90;;;;;;5055100;28;20205;-84
2021/01/11 04:22:35;;;;;;;2.17;1.97;;;3.30;99.90;;;;;;5054688;28;20171;-85
2021/01/11 04:25:02;;;;;;;2.73;2.47;;;3.20;99.90;;;;;;5055180;28;20197;-85
2021/01/11 04:27:27;;;;;;;2.43;2.30;;;3.20;99.90;;;;;;5056180;28;20252;-84
2021/01/11 04:29:53;;;;;;;2.97;2.77;;;3.40;99.90;;;;;;5054182;28;20197;-84
2021/01/11 04:32:18;;;;;;;2.67;2.47;;;3.40;99.90;;;;;;5054927;28;20239;-85
2021/01/11 04:34:44;;;;;;;6.67;3.33;;;3.40;99.90;;;;;;5055801;28;20236;-84
2021/01/11 04:37:10;;;;;;;5.00;4.43;;;3.40;99.90;;;;;;5056491;28;20259;-84
2021/01/11 04:39:37;;;;;;;5.13;4.03;;;3.40;99.90;;;;;;5055729;28;20174;-84
2021/01/11 04:42:08;;;;;;;2.00;1.90;;;3.50;99.90;;;;;;5054418;28;20236;-85
2021/01/11 04:44:35;;;;;;;2.27;1.67;;;3.40;99.90;;;;;;5054210;28;20671;-84
2021/01/11 04:47:01;;;;;;;4.83;3.57;;;3.50;99.90;;;;;;5054002;28;20166;-84
2021/01/11 04:49:26;;;;;;;3.47;3.17;;;3.40;99.90;;;;;;5053819;28;20211;-84
2021/01/11 04:51:54;;;;;;;1.37;1.30;;;3.40;99.90;;;;;;5055773;28;20176;-84
2021/01/11 04:54:21;;;;;;;3.77;3.37;;;3.40;99.90;;;;;;5054085;28;20201;-84
2021/01/11 04:56:49;;;;;;;1.60;1.43;;;3.30;99.90;;;;;;5054130;28;20535;-85
2021/01/11 04:59:19;;;;;;;2.10;1.90;;;3.10;99.90;;;;;;5055657;28;20164;-84
2021/01/11 05:01:48;;;;;;;2.33;2.13;;;3.30;99.90;;;;;;5054211;28;20197;-85
2021/01/11 05:04:15;;;;;;;6.43;4.50;;;3.30;99.90;;;;;;5055221;28;20187;-84
2021/01/11 05:06:45;;;;;;;3.97;3.23;;;3.30;99.90;;;;;;5053977;28;20172;-84
2021/01/11 05:09:14;;;;;;;2.80;2.63;;;3.20;99.90;;;;;;5055953;28;20160;-84
2021/01/11 05:11:40;;;;;;;1.77;1.67;;;3.30;99.90;;;;;;5054247;28;20197;-84
2021/01/11 05:14:07;;;;;;;2.37;2.10;;;3.20;99.90;;;;;;5054094;28;20192;-84
2021/01/11 05:16:34;;;;;;;4.97;3.30;;;3.10;99.90;;;;;;5054069;28;20198;-84
2021/01/11 05:19:28;;;;;;;3.33;2.67;;;3.20;99.90;;;;;;5054096;28;20177;-84
2021/01/11 05:21:53;;;;;;;4.50;3.40;;;3.10;99.90;;;;;;5054258;28;20574;-83
2021/01/11 05:24:42;;;;;;;8.50;2.23;;;3.10;99.90;;;;;;5054138;28;20188;-85
2021/01/11 05:27:09;;;;;;;3.73;2.03;;;3.10;99.90;;;;;;5053690;28;20157;-84
2021/01/11 05:29:36;;;;;;;3.03;2.57;;;2.90;99.90;;;;;;5053675;28;20165;-85
2021/01/11 05:34:50;;;;;;;3.93;2.13;;;3.10;99.90;;;;;;5132259;22;20234;-83
2021/01/11 05:37:34;;;;;;;3.97;3.57;;;3.20;99.90;;;;;;5087389;28;20163;-82
2021/01/11 05:40:11;;;;;;;4.23;2.13;;;3.20;99.90;;;;;;5089209;28;20176;-82
2021/01/11 05:42:38;;;;;;;2.43;2.23;;;3.30;99.90;;;;;;5087968;28;20166;-82
2021/01/11 05:45:23;;;;;;;2.47;2.27;;;3.20;99.90;;;;;;5109834;28;20188;-83
2021/01/11 05:48:09;;;;;;;2.50;2.30;;;3.10;99.90;;;;;;5092505;28;20639;-83
2021/01/11 05:50:41;;;;;;;0.83;0.83;;;3.20;99.90;;;;;;5091431;28;20161;-82
2021/01/11 05:53:24;;;;;;;2.80;2.27;;;3.00;99.90;;;;;;5088014;28;20173;-83
2021/01/11 05:55:51;;;;;;;1.87;1.47;;;3.20;99.90;;;;;;5085017;28;20198;-82
2021/01/11 05:58:26;;;;;;;2.43;2.23;;;3.20;99.90;;;;;;5086091;28;20263;-82
2021/01/11 06:00:52;;;;;;;9.90;2.33;;;3.30;99.90;;;;;;5086303;28;20273;-82
2021/01/11 06:03:18;;;;;;;5.23;3.17;;;3.20;99.90;;;;;;5086199;28;20172;-82
2021/01/11 06:05:44;;;;;;;3.20;2.90;;;3.30;99.90;;;;;;5085701;28;20696;-82
2021/01/11 06:08:12;;;;;;;1.87;0.83;;;3.30;99.90;;;;;;5086610;28;20603;-82
2021/01/11 06:10:39;;;;;;;2.10;2.00;;;3.20;99.90;;;;;;5086608;28;20182;-82
2021/01/11 06:13:09;;;;;;;2.10;2.00;;;3.30;99.90;;;;;;5086662;28;20206;-83
2021/01/11 06:15:35;;;;;;;1.37;1.30;;;3.40;99.90;;;;;;5085972;28;20198;-83
2021/01/11 06:18:02;;;;;;;3.50;1.23;;;3.40;99.90;;;;;;5087208;28;20164;-82
2021/01/11 06:20:29;;;;;;;1.53;1.43;;;3.30;99.90;;;;;;5086138;28;20202;-82
2021/01/11 06:22:58;;;;;;;2.73;2.53;;;3.40;99.90;;;;;;5086833;28;20525;-82
2021/01/11 06:25:23;;;;;;;7.53;4.43;;;3.40;99.90;;;;;;5086285;28;20188;-82
2021/01/11 06:27:56;;;;;;;3.93;1.73;;;3.40;99.90;;;;;;5086991;28;20202;-82
2021/01/11 06:30:34;;;;;;;4.17;3.97;;;3.50;99.90;;;;;;5086928;28;20183;-83
2021/01/11 06:33:06;;;;;;;1.83;1.73;;;3.50;99.90;;;;;;5087096;28;20560;-82
2021/01/11 06:35:37;;;;;;;2.30;1.60;;;3.30;99.90;;;;;;5105769;28;20197;-82
2021/01/11 06:38:08;;;;;;;1.73;1.63;;;3.40;99.90;;;;;;5086193;28;20196;-83
2021/01/11 06:40:33;;;;;;;1.13;1.13;;;3.50;99.90;;;;;;5086709;28;20271;-82
2021/01/11 06:43:00;;;;;;;1.67;1.53;;;3.40;99.90;;;;;;5087419;28;20179;-83
2021/01/11 06:45:37;;;;;;;4.20;1.63;;;3.50;99.90;;;;;;5087384;28;20188;-82
2021/01/11 06:48:08;;;;;;;2.83;2.63;;;3.50;99.90;;;;;;5087103;28;20184;-82
2021/01/11 06:50:35;;;;;;;3.27;1.60;;;3.50;99.90;;;;;;5088041;28;20179;-82
2021/01/11 06:53:02;;;;;;;0.83;0.83;;;3.30;99.90;;;;;;5087617;28;20176;-82
2021/01/11 06:55:28;;;;;;;1.07;1.07;;;3.50;99.90;;;;;;5086429;28;20196;-82
2021/01/11 06:57:59;;;;;;;3.13;2.93;;;3.40;99.90;;;;;;5106921;28;20683;-82
2021/01/11 07:00:36;;;;;;;2.17;1.90;;;3.40;99.90;;;;;;5087927;28;20207;-82
2021/01/11 07:03:04;;;;;;;1.90;1.80;;;3.40;99.90;;;;;;5088694;28;20677;-82
2021/01/11 07:05:33;;;;;;;4.00;0.80;;;3.50;99.90;;;;;;5087767;28;20191;-82
2021/01/11 07:08:06;;;;;;;1.30;1.20;;;3.50;99.90;;;;;;5106140;28;20282;-82
2021/01/11 07:10:32;;;;;;;1.07;0.97;;;3.40;99.90;;;;;;5088857;28;20170;-83
2021/01/11 07:13:16;;;;;;;3.83;3.43;;;3.40;99.90;;;;;;5089019;28;20188;-82
2021/01/11 07:15:42;;;;;;;1.50;1.43;;;3.40;99.90;;;;;;5108075;28;20196;-82
2021/01/11 07:18:08;;;;;;;3.73;1.53;;;3.40;99.90;;;;;;5089805;28;20185;-83
2021/01/11 07:20:41;;;;;;;9.03;2.80;;;3.40;99.90;;;;;;5108684;28;20201;-83
2021/01/11 07:23:07;;;;;;;7.17;3.93;;;3.40;99.90;;;;;;5090188;28;20168;-82
2021/01/11 07:25:33;;;;;;;14.97;2.70;;;3.40;99.90;;;;;;5090526;28;20202;-82
2021/01/11 07:28:03;;;;;;;3.00;2.40;;;3.40;99.90;;;;;;5089864;28;20191;-82
2021/01/11 07:30:33;;;;;;;4.07;2.47;;;3.50;99.90;;;;;;5090003;28;20181;-82
2021/01/11 07:32:59;;;;;;;3.60;1.97;;;3.40;99.90;;;;;;5084045;28;20199;-81
2021/01/11 07:35:25;;;;;;;0.80;0.80;;;3.40;99.90;;;;;;5105414;28;20251;-81
2021/01/11 07:37:50;;;;;;;1.67;1.57;;;3.50;99.90;;;;;;5085817;28;20199;-81
2021/01/11 07:40:16;;;;;;;2.47;2.00;;;3.50;99.90;;;;;;5084837;28;20224;-81
2021/01/11 07:42:42;;;;;;;1.83;1.77;;;3.40;99.90;;;;;;5084503;28;20635;-81
2021/01/11 07:45:09;;;;;;;1.53;1.43;;;3.50;99.90;;;;;;5084311;28;20670;-81
2021/01/11 07:47:35;;;;;;;2.57;2.37;;;3.60;99.90;;;;;;5102299;28;20186;-82
2021/01/11 07:50:01;;;;;;;1.50;1.40;;;3.60;99.90;;;;;;5085793;28;20168;-82
2021/01/11 07:52:28;;;;;;;7.20;1.40;;;3.60;99.90;;;;;;5103414;28;20644;-82
2021/01/11 07:55:02;;;;;;;1.73;1.63;;;3.60;99.90;;;;;;5099991;28;20180;-85
2021/01/11 07:57:30;;;;;;;2.13;1.63;;;3.50;99.90;;;;;;5079874;28;20219;-83
2021/01/11 08:00:10;;;;;;;3.43;3.13;;;3.50;99.90;;;;;;5084122;28;20226;-83
2021/01/11 08:02:37;;;;;;;2.57;2.40;;;3.50;99.90;;;;;;5084323;28;20242;-84
2021/01/11 08:05:19;;;;;;;3.60;2.03;;;3.50;99.90;;;;;;5078611;28;20184;-84
2021/01/11 08:07:48;;;;;;;3.53;3.23;;;3.50;99.90;;;;;;5083808;28;20215;-83
2021/01/11 08:10:15;;;;;;;1.90;1.80;;;3.60;99.90;;;;;;5085779;28;20176;-82
2021/01/11 08:12:41;;;;;;;2.63;2.53;;;3.50;99.90;;;;;;5084904;28;20171;-81
2021/01/11 08:15:07;;;;;;;3.37;2.53;;;3.50;99.90;;;;;;5103336;28;20186;-80
2021/01/11 08:17:40;;;;;;;2.53;2.07;;;3.50;99.90;;;;;;5086513;28;20198;-80
2021/01/11 08:20:06;;;;;;;3.70;2.00;;;3.60;99.90;;;;;;5106329;28;20152;-81
2021/01/11 08:22:31;;;;;;;2.20;1.67;;;3.60;99.90;;;;;;5088610;28;20554;-80
2021/01/11 08:24:58;;;;;;;1.60;1.50;;;3.60;99.90;;;;;;5087752;28;20291;-80
2021/01/11 08:27:31;;;;;;;1.30;1.30;;;3.60;99.90;;;;;;5086905;28;20184;-80
2021/01/11 08:30:23;;;;;;;1.70;1.60;;;3.60;99.90;;;;;;5104630;28;20164;-81
2021/01/11 08:32:49;;;;;;;2.57;2.03;;;3.60;99.90;;;;;;5087088;28;20195;-81
2021/01/11 08:35:17;;;;;;;1.43;1.20;;;3.70;99.90;;;;;;5087437;28;20192;-83
2021/01/11 08:37:43;;;;;;;3.17;2.13;;;3.60;99.90;;;;;;5088012;28;20203;-82
2021/01/11 08:40:33;;;;;;;1.17;1.13;;;3.50;99.90;;;;;;5106126;28;20577;-84
2021/01/11 08:43:23;;;;;;;2.27;2.00;;;3.60;99.90;;;;;;5071349;28;20275;-83
2021/01/11 08:45:53;;;;;;;0.87;0.87;;;3.60;99.90;;;;;;5090050;28;20165;-82
2021/01/11 08:48:25;;;;;;;1.90;1.60;;;3.60;99.90;;;;;;5088039;28;20173;-80
2021/01/11 08:50:50;;;;;;;3.07;1.97;;;3.60;99.90;;;;;;5110915;28;20154;-82
2021/01/11 08:53:26;;;;;;;3.13;1.43;;;3.60;99.90;;;;;;5093507;28;20683;-81
2021/01/11 08:56:09;;;;;;;2.13;2.03;;;3.70;99.90;;;;;;5092202;28;20251;-82
2021/01/11 08:58:55;;;;;;;2.47;2.27;;;3.60;99.90;;;;;;5087333;28;20189;-84
2021/01/11 09:01:24;;;;;;;1.67;1.60;;;3.70;99.90;;;;;;5086246;28;20212;-83
2021/01/11 09:03:53;;;;;;;1.50;1.47;;;3.80;99.90;;;;;;5107037;28;20191;-83
2021/01/11 09:06:38;;;;;;;1.67;1.57;;;3.70;99.90;;;;;;5097528;28;20165;-83
2021/01/11 09:09:09;;;;;;;2.20;2.10;;;3.80;99.90;;;;;;5079612;28;20168;-82
2021/01/11 09:11:36;;;;;;;0.50;0.50;;;3.80;99.90;;;;;;5077337;28;20293;-83
2021/01/11 09:14:08;;;;;;;4.53;1.97;;;3.70;99.90;;;;;;5078374;28;20224;-82
2021/01/11 09:16:34;;;;;;;2.40;2.20;;;3.60;99.90;;;;;;5077934;28;20249;-83
2021/01/11 09:19:08;;;;;;;1.83;1.73;;;3.60;99.90;;;;;;5077832;28;20180;-80
2021/01/11 09:21:34;;;;;;;2.47;2.27;;;3.60;99.90;;;;;;5079049;28;20233;-80
2021/01/11 09:23:59;;;;;;;1.50;1.47;;;3.60;99.90;;;;;;5078660;28;20193;-80
2021/01/11 09:26:25;;;;;;;1.90;1.80;;;3.60;99.90;;;;;;5097463;28;20234;-80
2021/01/11 09:28:51;;;;;;;1.97;1.87;;;3.50;99.90;;;;;;5078346;28;20187;-81
2021/01/11 09:31:17;;;;;;;1.10;1.10;;;3.50;99.90;;;;;;5097884;28;20582;-80
2021/01/11 09:33:42;;;;;;;1.43;1.33;;;3.50;99.90;;;;;;5078256;28;20248;-81
2021/01/11 09:36:08;;;;;;;1.83;1.73;;;3.60;99.90;;;;;;5097118;28;20184;-80
2021/01/11 09:38:34;;;;;;;3.87;2.07;;;3.60;99.90;;;;;;5079091;28;20183;-79
2021/01/11 09:40:59;;;;;;;1.00;1.00;;;3.60;99.90;;;;;;5079383;28;20200;-79
2021/01/11 09:43:25;;;;;;;0.80;0.80;;;3.60;99.90;;;;;;5098102;28;20168;-80
2021/01/11 09:45:50;;;;;;;1.63;1.53;;;3.70;99.90;;;;;;5079430;28;20175;-82
2021/01/11 09:48:16;;;;;;;2.13;1.83;;;3.60;99.90;;;;;;5080046;28;20168;-80
2021/01/11 09:50:41;;;;;;;1.90;1.57;;;3.60;99.90;;;;;;5099279;28;20227;-80
2021/01/11 09:53:07;;;;;;;2.50;2.07;;;3.60;99.90;;;;;;5099836;28;20172;-80
2021/01/11 09:55:34;;;;;;;2.87;1.10;;;3.60;99.90;;;;;;5084311;28;20212;-80
2021/01/11 09:58:02;;;;;;;2.20;2.00;;;3.40;99.90;;;;;;5102709;28;20259;-80
2021/01/11 10:00:27;;;;;;;1.00;1.00;;;3.20;99.90;;;;;;5085426;28;20223;-79
2021/01/11 10:02:53;;;;;;;1.00;1.00;;;3.30;99.90;;;;;;5085020;28;20595;-79
2021/01/11 10:05:20;;;;;;;0.67;0.67;;;3.20;99.90;;;;;;5102942;28;20256;-79
2021/01/11 10:07:46;;;;;;;4.80;2.20;;;3.20;99.90;;;;;;5104012;28;20175;-80
2021/01/11 10:10:15;;;;;;;4.20;3.60;;;3.20;99.90;;;;;;5085719;28;20178;-81
2021/01/11 10:12:41;;;;;;;4.80;1.73;;;3.30;99.90;;;;;;5085170;28;20169;-80
2021/01/11 10:15:08;;;;;;;2.47;2.30;;;3.20;99.90;;;;;;5086308;28;20196;-80
2021/01/11 10:17:36;;;;;;;1.00;0.93;;;3.20;99.90;;;;;;5086600;28;20173;-80
2021/01/11 10:20:03;;;;;;;1.60;1.50;;;3.30;99.90;;;;;;5105779;28;20169;-80
2021/01/11 10:22:28;;;;;;;1.53;1.40;;;3.30;99.90;;;;;;5087551;28;20180;-80
2021/01/11 10:24:54;;;;;;;0.70;0.67;;;3.30;99.90;;;;;;5086594;28;20596;-81
2021/01/11 10:27:20;;;;;;;1.73;1.63;;;3.30;99.90;;;;;;5087626;28;20167;-80
2021/01/11 10:29:45;;;;;;;3.50;2.33;;;3.20;99.90;;;;;;5086836;28;20695;-80
2021/01/11 10:32:11;;;;;;;2.90;2.70;;;3.20;99.90;;;;;;5090943;28;20640;-85
2021/01/11 10:34:37;;;;;;;2.30;2.10;;;3.30;99.90;;;;;;5108438;28;20212;-82
2021/01/11 10:37:03;;;;;;;1.67;1.57;;;3.30;99.90;;;;;;5107949;28;20176;-82
2021/01/11 10:39:29;;;;;;;1.47;1.43;;;3.30;99.90;;;;;;5088616;28;20176;-80
2021/01/11 10:41:56;;;;;;;3.10;1.23;;;3.30;99.90;;;;;;5087337;28;20593;-82
2021/01/11 10:44:26;;;;;;;1.77;1.67;;;3.20;99.90;;;;;;5088219;28;20678;-82
2021/01/11 10:46:58;;;;;;;1.37;1.00;;;3.20;99.90;;;;;;5106660;28;20161;-83
2021/01/11 10:49:25;;;;;;;0.77;0.77;;;3.10;99.90;;;;;;5085804;28;20567;-80
2021/01/11 10:51:50;;;;;;;1.17;1.07;;;3.20;99.90;;;;;;5099963;28;20518;-80
2021/01/11 10:54:16;;;;;;;1.47;1.43;;;3.20;99.90;;;;;;5082410;28;20203;-80
2021/01/11 10:56:42;;;;;;;0.73;0.73;;;3.30;99.90;;;;;;5080980;28;20170;-81
2021/01/11 10:59:08;;;;;;;1.73;1.10;;;3.30;99.90;;;;;;5099833;28;20168;-82
2021/01/11 11:01:34;;;;;;;0.93;0.93;;;3.30;99.90;;;;;;5079922;28;20702;-79
2021/01/11 11:03:59;;;;;;;1.83;1.40;;;3.40;99.90;;;;;;5080234;28;20244;-81
2021/01/11 11:06:25;;;;;;;1.80;1.07;;;3.30;99.90;;;;;;5098169;28;20169;-83
2021/01/11 11:08:52;;;;;;;1.07;1.07;;;3.30;99.90;;;;;;5079987;28;20180;-82
2021/01/11 11:11:18;;;;;;;2.77;2.20;;;3.30;99.90;;;;;;5080533;28;20199;-80
2021/01/11 11:13:43;;;;;;;1.37;1.27;;;3.30;99.90;;;;;;5079626;28;20189;-81
2021/01/11 11:16:10;;;;;;;1.60;0.90;;;3.30;99.90;;;;;;5080442;28;20757;-83
2021/01/11 11:18:37;;;;;;;1.43;1.30;;;3.30;99.90;;;;;;5080177;28;20667;-80
2021/01/11 11:21:11;;;;;;;1.80;1.70;;;3.30;99.90;;;;;;5098382;28;20285;-82
2021/01/11 11:23:37;;;;;;;2.20;2.10;;;3.40;99.90;;;;;;5097540;28;20674;-80
2021/01/11 11:26:04;;;;;;;1.73;0.90;;;3.30;99.90;;;;;;5080599;28;20173;-81
2021/01/11 11:28:31;;;;;;;0.73;0.73;;;3.20;99.90;;;;;;5079957;28;20174;-81
2021/01/11 11:30:57;;;;;;;0.50;0.50;;;3.20;99.90;;;;;;5080777;28;20173;-79
2021/01/11 11:33:25;;;;;;;1.93;1.30;;;3.20;99.90;;;;;;5091423;23;20242;-78
2021/01/11 11:35:51;;;;;;;0.87;0.87;;;3.10;99.90;;;;;;5077448;28;20692;-78
2021/01/11 11:38:18;;;;;;;0.80;0.80;;;3.20;99.90;;;;;;5078919;28;20530;-78
2021/01/11 11:40:43;;;;;;;2.73;2.47;;;3.20;99.90;;;;;;5077660;28;20202;-79
2021/01/11 11:43:09;;;;;;;0.47;0.47;;;3.20;99.90;;;;;;5077178;28;20177;-78
2021/01/11 11:45:35;;;;;;;0.40;0.40;;;3.30;99.90;;;;;;5077290;28;20188;-78
2021/01/11 11:48:00;;;;;;;1.07;1.07;;;3.30;99.90;;;;;;5077678;28;20185;-78
2021/01/11 11:50:26;;;;;;;2.23;1.47;;;3.40;99.90;;;;;;5078345;28;20177;-78
2021/01/11 11:52:52;;;;;;;0.47;0.47;;;3.40;99.90;;;;;;5077231;28;20627;-79
2021/01/11 11:55:17;;;;;;;0.93;0.93;;;3.40;99.90;;;;;;5078729;28;20201;-79
2021/01/11 11:57:44;;;;;;;2.87;2.63;;;3.50;99.90;;;;;;5080210;28;20179;-78
2021/01/11 12:00:14;;;;;;;1.63;1.53;;;3.60;99.90;;;;;;5078954;28;20182;-80
2021/01/11 12:02:44;;;;;;;2.57;1.57;;;3.60;99.90;;;;;;5078372;28;20177;-78
2021/01/11 12:05:11;;;;;;;0.53;0.53;;;3.60;99.90;;;;;;5078206;28;20197;-79
2021/01/11 12:07:36;;;;;;;3.27;0.60;;;3.70;99.90;;;;;;5077757;28;20209;-77
2021/01/11 12:10:04;;;;;;;0.70;0.70;;;3.70;99.90;;;;;;5078297;28;20161;-78
2021/01/11 12:12:29;;;;;;;0.43;0.40;;;3.80;99.90;;;;;;5077697;28;20205;-80
2021/01/11 12:14:55;;;;;;;1.07;0.83;;;3.80;99.90;;;;;;5077763;28;20670;-78
2021/01/11 12:17:20;;;;;;;0.27;0.27;;;3.90;99.90;;;;;;5079038;28;20170;-78
2021/01/11 12:19:46;;;;;;;0.83;0.77;;;3.80;99.90;;;;;;5079992;28;20246;-78
2021/01/11 12:22:12;;;;;;;2.13;1.50;;;3.90;99.90;;;;;;5080418;28;20197;-78
2021/01/11 12:24:40;;;;;;;1.27;1.23;;;3.90;99.90;;;;;;5080583;28;20668;-78
2021/01/11 12:27:06;;;;;;;2.40;2.20;;;3.80;99.90;;;;;;5080814;28;20695;-78
2021/01/11 12:29:32;;;;;;;4.47;2.97;;;3.90;99.90;;;;;;5080530;28;20173;-78
2021/01/11 12:32:01;;;;;;;2.13;1.87;;;3.90;99.90;;;;;;5079595;28;20307;-78
2021/01/11 12:34:27;;;;;;;1.13;1.03;;;3.90;99.90;;;;;;5080674;28;20239;-79
2021/01/11 12:36:52;;;;;;;1.23;1.00;;;4.00;99.90;;;;;;5082606;28;20170;-79
2021/01/11 12:39:18;;;;;;;0.40;0.40;;;4.10;99.90;;;;;;5084005;28;20677;-79
2021/01/11 12:41:43;;;;;;;0.60;0.60;;;4.00;99.90;;;;;;5081882;28;20247;-80
2021/01/11 12:44:09;;;;;;;0.67;0.67;;;4.00;99.90;;;;;;5081009;28;20611;-79
2021/01/11 12:46:36;;;;;;;1.63;1.53;;;4.00;99.90;;;;;;5078857;28;20170;-79
2021/01/11 12:49:02;;;;;;;1.30;0.97;;;3.90;99.90;;;;;;5080016;28;20638;-80
2021/01/11 12:51:28;;;;;;;0.80;0.43;;;4.00;99.90;;;;;;5080176;28;20551;-79
2021/01/11 12:53:54;;;;;;;1.30;1.23;;;4.00;99.90;;;;;;5077706;28;20193;-79
2021/01/11 12:56:22;;;;;;;0.90;0.50;;;4.00;99.90;;;;;;5078116;28;20174;-79
2021/01/11 12:58:53;;;;;;;0.53;0.30;;;4.00;99.90;;;;;;5077704;28;20170;-79
2021/01/11 13:01:23;;;;;;;0.60;0.60;;;4.10;99.90;;;;;;5077237;28;20193;-78
2021/01/11 13:03:50;;;;;;;0.53;0.53;;;4.10;99.90;;;;;;5075987;28;20194;-79
2021/01/11 13:06:27;;;;;;;0.67;0.67;;;4.10;99.90;;;;;;5077060;28;20181;-79
2021/01/11 13:08:54;;;;;;;0.97;0.90;;;4.10;99.90;;;;;;5079588;28;20240;-79